Pagrindinis puslapis
METAR-TAF:

METAR-TAF

Oro uostai :

Chinandega, Nikaragva

platuma: 12-38N, ilguma: 087-08W, Aukštis: 53 m

Dabartinis oras

Ataskaita buvo paskelbta 1 valandą ir 13 minutes, ne 18:00 UTC
Vėjas 4 kt iš Šiaurės
Temperatūra 32°C
Drėgmė 63%
Slėgis 1011 hPa
Matomumas 10 km arba daugiau
Išsisklaidę debesys ne aukštis 2500 ft, aukštai iškilę kamuoliniai debesys.

METAR: MNCH 221800Z 36004KT 9999 SCT025TCU 32/24 Q1011 TCU N NE E NW

Laikas: 13:13 (19:13 UTC)


TAF: trūkstamas

Orai ataskaitas ir orų prognozės (METAR, TAF).

turimą stotys yra geltonos ir raudonos taškus žemėlapyje.

Perkelti pele per norėdami pamatyti stoties vardą.

Tada spustelėkite, norėdami matyti oro stebėjimo ir prognozės.

Norėdami pakeisti žemėlapį: spustelėkite ant žalios mygtukų su juodo kryžiaus žemyn,; žalią mygtuką su brūkšneliu, jei norite nutolinti; arba žalių rodyklių gretimoms žemėlapius.


METAR-TAF: